createdAt,value
2022-12-10T00:01:29.276Z,13.77
2022-12-10T00:03:56.691Z,13.50
2022-12-10T00:06:26.323Z,12.70
2022-12-10T00:08:53.786Z,13.95
2022-12-10T00:11:22.904Z,15.23
2022-12-10T00:13:51.130Z,14.82
2022-12-10T00:16:20.670Z,13.77
2022-12-10T00:18:48.807Z,16.65
2022-12-10T00:21:19.596Z,15.75
2022-12-10T00:23:47.090Z,19.05
2022-12-10T00:26:18.277Z,17.55
2022-12-10T00:28:46.521Z,17.35
2022-12-10T00:31:20.012Z,16.67
2022-12-10T00:33:48.028Z,13.82
2022-12-10T00:36:17.929Z,12.77
2022-12-10T00:38:45.613Z,11.90
2022-12-10T00:41:13.777Z,10.75
2022-12-10T00:43:40.898Z,9.90
2022-12-10T00:46:08.501Z,9.75
2022-12-10T00:48:35.877Z,8.75
2022-12-10T00:51:08.824Z,8.60
2022-12-10T00:53:38.492Z,10.68
2022-12-10T00:56:08.300Z,9.55
2022-12-10T00:58:38.026Z,10.13
2022-12-10T01:01:20.085Z,10.57
2022-12-10T01:03:50.087Z,11.10
2022-12-10T01:06:29.086Z,10.52
2022-12-10T01:08:59.254Z,9.60
2022-12-10T01:11:30.960Z,9.48
2022-12-10T01:13:59.385Z,8.18
2022-12-10T01:16:27.347Z,8.90
2022-12-10T01:18:56.285Z,8.13
2022-12-10T01:21:24.910Z,7.22
2022-12-10T01:23:53.380Z,7.53
2022-12-10T01:26:25.783Z,7.70
2022-12-10T01:28:55.817Z,7.50
2022-12-10T01:31:37.668Z,8.35
2022-12-10T01:34:10.546Z,8.27
2022-12-10T01:36:40.610Z,7.78
2022-12-10T01:39:09.986Z,7.35
2022-12-10T01:41:42.806Z,8.30
2022-12-10T01:44:10.167Z,8.07
2022-12-10T01:46:48.123Z,7.87
2022-12-10T01:49:19.613Z,6.45
2022-12-10T01:51:51.297Z,7.30
2022-12-10T01:54:36.979Z,6.32
2022-12-10T01:57:10.790Z,5.55
2022-12-10T01:59:39.544Z,5.72
2022-12-10T02:02:47.352Z,5.30
2022-12-10T02:05:22.720Z,4.75
2022-12-10T02:08:11.563Z,5.75
2022-12-10T02:10:44.793Z,6.07
2022-12-10T02:13:29.803Z,5.72
2022-12-10T02:16:27.703Z,5.80
2022-12-10T02:19:02.703Z,5.00
2022-12-10T02:21:39.291Z,5.57
2022-12-10T02:24:12.520Z,5.80
2022-12-10T02:26:39.729Z,6.00
2022-12-10T02:29:25.472Z,6.10
2022-12-10T02:31:57.385Z,6.20
2022-12-10T02:34:27.826Z,5.70
2022-12-10T02:37:02.256Z,5.70
2022-12-10T02:39:37.553Z,6.22
2022-12-10T02:42:07.334Z,6.85
2022-12-10T02:44:37.771Z,7.15
2022-12-10T02:47:07.805Z,6.65
2022-12-10T02:49:38.609Z,6.40
2022-12-10T02:52:14.920Z,6.50
2022-12-10T02:54:45.134Z,6.30
2022-12-10T02:57:31.794Z,6.18
2022-12-10T03:00:08.056Z,6.07
2022-12-10T03:02:49.145Z,5.87
2022-12-10T03:05:23.262Z,5.80
2022-12-10T03:10:31.335Z,4.37
2022-12-10T03:13:07.803Z,4.30
2022-12-10T03:15:39.966Z,4.28
2022-12-10T03:18:09.916Z,4.28
2022-12-10T03:20:40.452Z,4.53
2022-12-10T03:23:11.882Z,3.60
2022-12-10T03:25:40.180Z,4.00
2022-12-10T03:28:08.841Z,4.03
2022-12-10T03:30:39.411Z,3.85
2022-12-10T03:33:07.020Z,4.75
2022-12-10T03:35:34.818Z,4.20
2022-12-10T03:38:02.575Z,4.15
2022-12-10T03:40:29.707Z,3.97
2022-12-10T03:42:56.976Z,4.10
2022-12-10T03:45:24.017Z,3.97
2022-12-10T03:47:51.038Z,4.25
2022-12-10T03:50:18.652Z,5.03
2022-12-10T03:52:45.669Z,4.90
2022-12-10T03:55:12.708Z,5.37
2022-12-10T03:57:40.016Z,4.47
2022-12-10T04:00:08.304Z,4.80
2022-12-10T04:02:39.293Z,5.55
2022-12-10T04:05:07.653Z,5.07
2022-12-10T04:07:35.304Z,5.10
2022-12-10T04:10:03.236Z,4.53
2022-12-10T04:12:30.620Z,6.00
2022-12-10T04:15:16.153Z,5.40
2022-12-10T04:17:43.907Z,5.20
2022-12-10T04:20:31.364Z,6.25
2022-12-10T04:23:17.115Z,5.80
2022-12-10T04:26:02.949Z,6.65
2022-12-10T04:28:30.287Z,6.32
2022-12-10T04:30:57.345Z,6.12
2022-12-10T04:33:24.359Z,6.78
2022-12-10T04:35:51.654Z,6.47
2022-12-10T04:38:18.619Z,6.60
2022-12-10T04:40:45.557Z,6.82
2022-12-10T04:43:12.848Z,8.00
2022-12-10T04:45:39.826Z,6.68
2022-12-10T04:48:06.996Z,7.25
2022-12-10T04:50:35.299Z,6.07
2022-12-10T04:53:02.279Z,5.32
2022-12-10T04:55:29.260Z,5.62
2022-12-10T04:57:56.537Z,5.53
2022-12-10T05:00:23.518Z,4.90
2022-12-10T05:02:50.740Z,5.05
2022-12-10T05:05:18.062Z,5.40
2022-12-10T05:07:45.125Z,4.82
2022-12-10T05:10:12.179Z,5.37
2022-12-10T05:12:39.505Z,5.20
2022-12-10T05:15:07.421Z,5.25
2022-12-10T05:17:34.622Z,4.78
2022-12-10T05:20:03.062Z,4.60
2022-12-10T05:22:48.486Z,5.45
2022-12-10T05:25:15.756Z,5.82
2022-12-10T05:27:42.845Z,6.03
2022-12-10T05:30:11.125Z,6.05
2022-12-10T05:32:38.732Z,6.32
2022-12-10T05:35:06.478Z,5.82
2022-12-10T05:37:34.074Z,6.87
2022-12-10T05:40:01.400Z,6.20
2022-12-10T05:42:29.037Z,6.00
2022-12-10T05:44:56.010Z,6.30
2022-12-10T05:47:23.320Z,6.97
2022-12-10T05:49:52.475Z,7.37
2022-12-10T05:52:19.767Z,7.32
2022-12-10T05:54:47.077Z,8.05
2022-12-10T05:57:14.095Z,7.45
2022-12-10T05:59:41.096Z,8.15
2022-12-10T06:02:08.373Z,7.22
2022-12-10T06:04:35.689Z,8.40
2022-12-10T06:07:06.601Z,8.13
2022-12-10T06:09:36.892Z,9.10
2022-12-10T06:12:04.046Z,10.15
2022-12-10T06:14:31.047Z,10.15
2022-12-10T06:16:58.318Z,10.35
2022-12-10T06:19:25.524Z,10.85
2022-12-10T06:21:52.492Z,10.88
2022-12-10T06:24:19.778Z,10.40
2022-12-10T06:26:50.537Z,10.77
2022-12-10T06:29:19.934Z,12.48
2022-12-10T06:31:47.088Z,11.68
2022-12-10T06:34:14.098Z,12.52
2022-12-10T06:36:41.408Z,11.85
2022-12-10T06:39:08.494Z,10.75
2022-12-10T06:41:35.508Z,12.50
2022-12-10T06:44:02.838Z,11.65
2022-12-10T06:46:30.057Z,11.27
2022-12-10T06:48:57.188Z,12.52
2022-12-10T06:51:25.776Z,10.38
2022-12-10T06:53:52.752Z,9.90
2022-12-10T06:56:20.538Z,9.07
2022-12-10T06:58:48.530Z,9.48
2022-12-10T07:01:17.103Z,9.38
2022-12-10T07:03:44.605Z,9.18
2022-12-10T07:06:12.696Z,9.45
2022-12-10T07:08:39.842Z,10.15
2022-12-10T07:11:09.098Z,9.45
2022-12-10T07:13:37.661Z,10.10
2022-12-10T07:16:16.876Z,9.98
2022-12-10T07:18:50.277Z,10.27
2022-12-10T07:21:25.140Z,11.18
2022-12-10T07:23:54.865Z,10.97
2022-12-10T07:26:22.470Z,12.43
2022-12-10T07:28:53.581Z,12.70
2022-12-10T07:31:23.149Z,12.27
2022-12-10T07:33:51.708Z,11.80
2022-12-10T07:36:19.911Z,11.80
2022-12-10T07:38:47.560Z,11.40
2022-12-10T07:41:15.552Z,10.48
2022-12-10T07:43:44.585Z,11.50
2022-12-10T07:46:13.436Z,10.38
2022-12-10T07:48:41.538Z,12.65
2022-12-10T07:51:09.067Z,11.48
2022-12-10T07:53:36.800Z,11.30
2022-12-10T07:56:05.086Z,9.88
2022-12-10T07:58:32.927Z,11.35
2022-12-10T08:01:00.484Z,12.05
2022-12-10T08:03:27.828Z,10.35
2022-12-10T08:06:06.416Z,11.55
2022-12-10T08:08:34.673Z,10.18
2022-12-10T08:11:02.414Z,10.85
2022-12-10T08:13:30.186Z,11.27
2022-12-10T08:16:05.611Z,11.40
2022-12-10T08:18:34.410Z,11.30
2022-12-10T08:21:06.929Z,10.95
2022-12-10T08:23:34.801Z,11.32
2022-12-10T08:26:10.603Z,10.82
2022-12-10T08:28:37.713Z,10.23
2022-12-10T08:31:05.960Z,11.60
2022-12-10T08:33:37.165Z,11.15
2022-12-10T08:36:06.977Z,11.68
2022-12-10T08:38:34.486Z,12.13
2022-12-10T08:41:07.754Z,13.00
2022-12-10T08:43:36.583Z,12.30
2022-12-10T08:46:03.757Z,12.32
2022-12-10T08:48:31.573Z,11.40
2022-12-10T08:50:59.098Z,10.98
2022-12-10T08:53:26.191Z,11.45
2022-12-10T08:55:54.723Z,11.95
2022-12-10T08:58:22.124Z,12.27
2022-12-10T09:00:50.267Z,13.32
2022-12-10T09:03:18.302Z,14.13
2022-12-10T09:05:46.097Z,14.02
2022-12-10T09:08:13.508Z,13.48
2022-12-10T09:10:41.686Z,14.40
2022-12-10T09:13:09.118Z,13.00
2022-12-10T09:15:36.234Z,14.23
2022-12-10T09:18:04.090Z,13.65
2022-12-10T09:20:31.792Z,14.30
2022-12-10T09:22:58.941Z,15.10
2022-12-10T09:25:25.943Z,13.50
2022-12-10T09:27:53.239Z,15.40
2022-12-10T09:30:20.269Z,14.35
2022-12-10T09:32:47.270Z,16.27
2022-12-10T09:35:14.676Z,14.85
2022-12-10T09:37:41.652Z,16.60
2022-12-10T09:40:24.085Z,14.63
2022-12-10T09:43:07.537Z,14.07
2022-12-10T09:45:45.597Z,13.98
2022-12-10T09:48:30.537Z,15.35
2022-12-10T09:53:50.864Z,13.40
2022-12-10T09:56:24.048Z,14.35
2022-12-10T09:58:51.732Z,15.30
2022-12-10T10:01:24.187Z,15.15
2022-12-10T10:03:51.573Z,12.43
2022-12-10T10:06:18.579Z,16.55
2022-12-10T10:08:49.355Z,19.08
2022-12-10T10:11:23.881Z,18.23
2022-12-10T10:16:30.527Z,11.43
2022-12-10T10:18:59.931Z,12.82
2022-12-10T10:21:39.561Z,13.15
2022-12-10T10:24:13.481Z,13.38
2022-12-10T10:26:41.028Z,12.98
2022-12-10T10:29:12.053Z,12.32
2022-12-10T10:31:41.860Z,13.35
2022-12-10T10:34:19.687Z,12.32
2022-12-10T10:36:47.816Z,12.43
2022-12-10T10:39:18.036Z,12.25
2022-12-10T10:41:46.443Z,13.70
2022-12-10T10:44:19.618Z,13.73
2022-12-10T10:46:49.224Z,12.45
2022-12-10T10:49:29.679Z,12.68
2022-12-10T10:52:06.010Z,12.88
2022-12-10T10:54:38.485Z,15.80
2022-12-10T10:57:13.061Z,13.85
2022-12-10T11:02:36.413Z,12.10
2022-12-10T11:05:24.955Z,11.20
2022-12-10T11:08:01.169Z,12.30
2022-12-10T11:10:29.759Z,10.55
2022-12-10T11:13:02.100Z,11.73
2022-12-10T11:15:35.695Z,10.45
2022-12-10T11:18:22.086Z,12.00
2022-12-10T11:21:00.226Z,11.25
2022-12-10T11:23:42.428Z,10.32
2022-12-10T11:26:23.083Z,10.35
2022-12-10T11:29:09.717Z,10.77
2022-12-10T11:31:39.655Z,10.77
2022-12-10T11:34:21.933Z,10.10
2022-12-10T11:37:13.792Z,9.55
2022-12-10T11:39:56.404Z,10.75
2022-12-10T11:42:45.332Z,10.43
2022-12-10T11:45:32.579Z,10.50
2022-12-10T11:48:20.739Z,10.57
2022-12-10T11:51:29.141Z,13.50
2022-12-10T11:54:11.536Z,11.38
2022-12-10T11:56:45.793Z,12.63
2022-12-10T12:00:04.063Z,13.43
2022-12-10T12:02:50.705Z,13.50
2022-12-10T12:05:51.200Z,13.23
2022-12-10T12:08:48.787Z,15.27
2022-12-10T12:11:24.086Z,16.23
2022-12-10T12:14:17.699Z,16.35
2022-12-10T12:16:52.477Z,16.20
2022-12-10T12:19:28.356Z,16.92
2022-12-10T12:21:57.039Z,16.95
2022-12-10T12:24:38.520Z,18.45
2022-12-10T12:27:17.901Z,17.08
2022-12-10T12:30:03.829Z,16.08
2022-12-10T12:32:54.228Z,19.20
2022-12-10T12:35:31.282Z,17.42
2022-12-10T12:38:23.240Z,17.15
2022-12-10T12:40:56.118Z,16.90
2022-12-10T12:43:34.377Z,16.35
2022-12-10T12:46:05.797Z,17.42
2022-12-10T12:48:55.083Z,18.30
2022-12-10T12:51:30.367Z,19.40
2022-12-10T12:53:57.805Z,18.77
2022-12-10T12:56:51.224Z,18.33
2022-12-10T12:59:37.567Z,17.87
2022-12-10T13:02:35.805Z,17.35
2022-12-10T13:05:03.927Z,18.02
2022-12-10T13:07:33.627Z,17.37
2022-12-10T13:10:06.862Z,18.35
2022-12-10T13:12:46.509Z,18.25
2022-12-10T13:15:34.111Z,17.52
2022-12-10T13:18:04.729Z,15.60
2022-12-10T13:20:42.217Z,17.35
2022-12-10T13:23:24.895Z,17.27
2022-12-10T13:25:54.367Z,18.33
2022-12-10T13:28:27.015Z,18.65
2022-12-10T13:31:17.239Z,17.73
2022-12-10T13:34:02.819Z,17.05
2022-12-10T13:37:01.891Z,17.70
2022-12-10T13:39:29.136Z,15.70
2022-12-10T13:42:30.197Z,18.12
2022-12-10T13:45:23.828Z,17.02
2022-12-10T13:48:16.878Z,17.20
2022-12-10T13:51:00.493Z,16.30
2022-12-10T13:53:47.320Z,17.55
2022-12-10T13:56:23.756Z,18.17
2022-12-10T13:59:25.593Z,17.40
2022-12-10T14:02:01.928Z,16.25
2022-12-10T14:05:14.215Z,15.60
2022-12-10T14:07:47.776Z,17.05
2022-12-10T14:10:19.241Z,17.20
2022-12-10T14:12:47.065Z,18.60
2022-12-10T14:15:27.604Z,17.90
2022-12-10T14:18:03.815Z,17.67
2022-12-10T14:20:35.196Z,16.50
2022-12-10T14:23:45.705Z,15.93
2022-12-10T14:26:21.446Z,14.55
2022-12-10T14:28:50.272Z,16.05
2022-12-10T14:31:26.879Z,17.50
2022-12-10T14:33:58.075Z,16.65
2022-12-10T14:36:35.823Z,16.40
2022-12-10T14:39:03.768Z,15.18
2022-12-10T14:41:39.062Z,14.43
2022-12-10T14:44:12.108Z,15.75
2022-12-10T14:46:39.406Z,15.82
2022-12-10T14:49:24.760Z,15.95
2022-12-10T14:51:52.793Z,16.85
2022-12-10T14:54:35.348Z,15.77
2022-12-10T14:57:08.147Z,17.02
2022-12-10T14:59:47.435Z,18.42
2022-12-10T15:02:37.138Z,16.58
2022-12-10T15:05:11.414Z,16.35
2022-12-10T15:07:41.039Z,17.75
2022-12-10T15:10:22.383Z,17.20
2022-12-10T15:12:52.294Z,16.80
2022-12-10T15:15:38.854Z,15.35
2022-12-10T15:18:10.995Z,15.00
2022-12-10T15:20:50.688Z,16.75
2022-12-10T15:23:24.467Z,14.75
2022-12-10T15:26:01.611Z,15.98
2022-12-10T15:28:30.450Z,14.82
2022-12-10T15:31:15.443Z,16.85
2022-12-10T15:34:12.282Z,14.77
2022-12-10T15:36:55.696Z,16.40
2022-12-10T15:39:35.824Z,16.80
2022-12-10T15:42:07.360Z,15.20
2022-12-10T15:44:40.337Z,14.52
2022-12-10T15:47:20.920Z,14.32
2022-12-10T15:49:50.248Z,13.38
2022-12-10T15:52:18.576Z,15.48
2022-12-10T15:54:48.713Z,14.87
2022-12-10T15:57:23.508Z,16.50
2022-12-10T15:59:56.117Z,15.07
2022-12-10T16:02:55.737Z,15.50
2022-12-10T16:05:34.355Z,14.57
2022-12-10T16:08:12.096Z,15.75
2022-12-10T16:10:39.665Z,14.85
2022-12-10T16:13:12.192Z,18.10
2022-12-10T16:16:03.984Z,16.23
2022-12-10T16:18:34.241Z,15.30
2022-12-10T16:21:02.088Z,16.62
2022-12-10T16:23:29.290Z,15.40
2022-12-10T16:25:56.374Z,16.60
2022-12-10T16:28:24.265Z,17.50
2022-12-10T16:30:53.758Z,18.27
2022-12-10T16:33:22.915Z,17.50
2022-12-10T16:35:51.758Z,17.48
2022-12-10T16:38:19.786Z,18.10
2022-12-10T16:40:48.363Z,16.55
2022-12-10T16:43:19.080Z,16.95
2022-12-10T16:45:46.964Z,16.30
2022-12-10T16:48:14.458Z,16.02
2022-12-10T16:50:42.865Z,15.52
2022-12-10T16:53:17.525Z,15.90
2022-12-10T16:55:45.315Z,15.23
2022-12-10T16:58:17.471Z,15.20
2022-12-10T17:00:53.788Z,16.73
2022-12-10T17:03:24.144Z,14.82
2022-12-10T17:06:00.500Z,15.27
2022-12-10T17:08:28.908Z,15.25
2022-12-10T17:11:17.044Z,15.55
2022-12-10T17:13:45.710Z,16.12
2022-12-10T17:16:22.502Z,14.63
2022-12-10T17:18:49.930Z,14.93
2022-12-10T17:21:17.236Z,14.90
2022-12-10T17:23:44.530Z,15.35
2022-12-10T17:26:28.179Z,15.57
2022-12-10T17:29:00.970Z,13.27
2022-12-10T17:31:28.186Z,15.00
2022-12-10T17:33:55.632Z,14.77
2022-12-10T17:36:22.783Z,12.05
2022-12-10T17:38:49.848Z,12.45
2022-12-10T17:41:17.419Z,13.73
2022-12-10T17:43:48.673Z,13.18
2022-12-10T17:46:19.790Z,13.23
2022-12-10T17:48:47.114Z,12.95
2022-12-10T17:51:14.418Z,13.02
2022-12-10T17:53:43.843Z,12.48
2022-12-10T17:56:15.705Z,13.23
2022-12-10T17:58:42.978Z,12.27
2022-12-10T18:01:10.616Z,12.85
2022-12-10T18:03:38.410Z,12.68
2022-12-10T18:06:13.802Z,12.10
2022-12-10T18:08:41.374Z,12.10
2022-12-10T18:11:14.636Z,12.63
2022-12-10T18:13:47.471Z,11.90
2022-12-10T18:16:21.793Z,11.65
2022-12-10T18:18:49.471Z,10.68
2022-12-10T18:21:18.397Z,12.18
2022-12-10T18:23:46.827Z,12.20
2022-12-10T18:26:18.136Z,12.37
2022-12-10T18:28:48.866Z,11.95
2022-12-10T18:31:23.325Z,12.75
2022-12-10T18:33:53.887Z,11.65
2022-12-10T18:36:27.124Z,11.93
2022-12-10T18:38:55.550Z,13.35
2022-12-10T18:41:24.289Z,13.30
2022-12-10T18:43:51.990Z,12.27
2022-12-10T18:46:23.705Z,12.27
2022-12-10T18:48:51.576Z,12.30
2022-12-10T18:51:19.699Z,12.30
2022-12-10T18:53:48.189Z,11.60
2022-12-10T18:56:19.122Z,12.77
2022-12-10T18:58:46.371Z,12.50
2022-12-10T19:01:15.818Z,11.25
2022-12-10T19:03:48.191Z,11.10
2022-12-10T19:06:19.298Z,10.23
2022-12-10T19:11:34.823Z,10.18
2022-12-10T19:14:02.159Z,9.98
2022-12-10T19:16:29.185Z,10.40
2022-12-10T19:18:58.188Z,11.45
2022-12-10T19:21:25.487Z,11.02
2022-12-10T19:23:52.512Z,10.18
2022-12-10T19:26:33.085Z,10.35
2022-12-10T19:29:02.977Z,10.50
2022-12-10T19:31:30.492Z,11.27
2022-12-10T19:33:57.567Z,10.18
2022-12-10T19:36:27.787Z,9.93
2022-12-10T19:38:56.477Z,8.48
2022-12-10T19:41:23.907Z,10.35
2022-12-10T19:43:51.704Z,11.07
2022-12-10T19:46:22.624Z,9.05
2022-12-10T19:48:50.752Z,8.35
2022-12-10T19:51:18.724Z,9.80
2022-12-10T19:53:50.262Z,10.52
2022-12-10T19:56:22.056Z,10.52
2022-12-10T19:58:50.867Z,9.95
2022-12-10T20:01:18.055Z,9.40
2022-12-10T20:03:45.607Z,8.80
2022-12-10T20:06:15.075Z,10.45
2022-12-10T20:08:42.285Z,8.98
2022-12-10T20:11:09.592Z,9.40
2022-12-10T20:13:36.816Z,10.63
2022-12-10T20:16:04.727Z,8.30
2022-12-10T20:18:32.071Z,8.07
2022-12-10T20:20:59.159Z,10.30
2022-12-10T20:23:26.647Z,8.88
2022-12-10T20:25:53.957Z,8.77
2022-12-10T20:28:21.850Z,9.70
2022-12-10T20:30:48.924Z,9.32
2022-12-10T20:33:44.879Z,9.52
2022-12-10T20:36:03.355Z,8.70
2022-12-10T20:38:30.752Z,8.55
2022-12-10T20:40:57.993Z,8.93
2022-12-10T20:43:25.022Z,9.63
2022-12-10T20:45:52.303Z,8.48
2022-12-10T20:48:19.335Z,8.02
2022-12-10T20:50:46.412Z,8.73
2022-12-10T20:53:13.748Z,8.93
2022-12-10T20:55:41.297Z,8.05
2022-12-10T20:58:11.039Z,7.80
2022-12-10T21:00:38.760Z,8.35
2022-12-10T21:03:05.781Z,8.82
2022-12-10T21:05:32.775Z,8.68
2022-12-10T21:08:01.276Z,7.45
2022-12-10T21:11:03.760Z,7.53
2022-12-10T21:13:31.923Z,7.03
2022-12-10T21:16:00.580Z,7.85
2022-12-10T21:18:30.085Z,7.15
2022-12-10T21:20:59.358Z,8.57
2022-12-10T21:23:28.131Z,7.35
2022-12-10T21:25:55.865Z,8.02
2022-12-10T21:28:25.111Z,8.55
2022-12-10T21:30:53.635Z,7.72
2022-12-10T21:33:23.128Z,7.35
2022-12-10T21:35:51.662Z,7.78
2022-12-10T21:38:19.091Z,7.80
2022-12-10T21:40:47.236Z,8.38
2022-12-10T21:43:27.018Z,8.20
2022-12-10T21:45:56.396Z,7.80
2022-12-10T21:48:26.728Z,7.25
2022-12-10T21:51:01.860Z,8.68
2022-12-10T21:53:30.026Z,7.95
2022-12-10T21:55:57.082Z,8.80
2022-12-10T21:58:24.158Z,9.45
2022-12-10T22:00:58.245Z,7.93
2022-12-10T22:03:25.836Z,7.85
2022-12-10T22:05:53.290Z,7.30
2022-12-10T22:08:20.663Z,7.28
2022-12-10T22:10:50.410Z,8.02
2022-12-10T22:13:18.870Z,8.35
2022-12-10T22:15:47.169Z,7.18
2022-12-10T22:18:15.863Z,7.37
2022-12-10T22:20:44.512Z,7.30
2022-12-10T22:23:15.924Z,6.53
2022-12-10T22:25:43.451Z,6.95
2022-12-10T22:28:10.775Z,7.80
2022-12-10T22:30:40.620Z,6.70
2022-12-10T22:33:08.864Z,6.80
2022-12-10T22:35:37.255Z,7.47
2022-12-10T22:38:05.583Z,6.50
2022-12-10T22:40:33.399Z,6.50
2022-12-10T22:43:20.112Z,5.90
2022-12-10T22:45:47.870Z,6.53
2022-12-10T22:48:14.869Z,7.47
2022-12-10T22:50:41.844Z,7.85
2022-12-10T22:53:09.121Z,7.50
2022-12-10T22:55:36.092Z,7.47
2022-12-10T22:58:05.642Z,9.55
2022-12-10T23:00:33.248Z,7.78
2022-12-10T23:03:01.458Z,8.05
2022-12-10T23:05:29.074Z,8.15
2022-12-10T23:07:56.404Z,7.87
2022-12-10T23:10:25.379Z,8.43
2022-12-10T23:13:07.750Z,7.20
2022-12-10T23:15:35.150Z,7.18
2022-12-10T23:18:02.113Z,7.50
2022-12-10T23:20:30.863Z,8.98
2022-12-10T23:22:58.145Z,8.45
2022-12-10T23:25:25.207Z,9.43
2022-12-10T23:27:52.407Z,9.40
2022-12-10T23:30:19.734Z,9.43
2022-12-10T23:32:46.825Z,9.50
2022-12-10T23:35:13.885Z,10.60
2022-12-10T23:37:41.629Z,10.48
2022-12-10T23:40:09.733Z,10.48
2022-12-10T23:42:37.718Z,9.70
2022-12-10T23:45:05.508Z,9.50
2022-12-10T23:47:32.490Z,9.27
2022-12-10T23:49:59.486Z,9.75
2022-12-10T23:52:26.808Z,8.48
2022-12-10T23:54:53.783Z,9.68
2022-12-10T23:57:20.805Z,8.82
2022-12-10T23:59:48.106Z,9.85
